METAR AND TAF INFORMATION
METAR FOR TNCM
ADDS - METARS form results

(2354 UTC 18 October 2017)
Data provider http://aviationweather.gov/adds/metars/
 
Forecast for: TNCM (ST MAARTEN JULIA, VI)
Text: TNCM 182337Z 1900/1924 10012KT 5SM HZ FEW020
Forecast period: 0000 to 2140 UTC 19 October 2017
Forecast type: FROM: standard forecast or significant change
Winds: from the E (100 degrees) at 14 MPH (12 knots; 6.2 m/s)
Visibility: 5 miles (8 km)
Clouds: few clouds at 2000 feet AGL
Weather: HZ  (haze)
Text: FM192140 11012KT 6SM HZ FEW019
Forecast period: 2140 UTC 19 October 2017 to 0000 UTC 20 October 2017
Forecast type: FROM: standard forecast or significant change
Winds: from the ESE (110 degrees) at 14 MPH (12 knots; 6.2 m/s)
Visibility: 6 miles (10 km)
Clouds: few clouds at 1900 feet AGL
Weather: HZ  (haze)

 AIRPORT MAP

 RUNWAY INFORMATION
Runway 09 Runway length 7708 ft Runway width 148 ft
Runway elevation 11 ft Runway displaced threshold 162 ft Runway heading 81
Runway 27 Runway length 7708 ft Runway width 148 ft
Runway elevation 11 ft Runway displaced threshold 394 ft Runway heading 261
Runway 10 Runway length 7152 ft Runway width 148 ft
Runway elevation 12 ft Runway displaced threshold 0 ft Runway heading 81
Runway 28 Runway length 7152 ft Runway width 148 ft
Runway elevation 9 ft Runway displaced threshold 0 ft Runway heading 261

 AIRPORT FREQUENCIES
Type APP Name JULIANA AP Frequency 128.95 MHZ
Type TWR Name JULIANA TW Frequency 118.7 MHZ

 AIRPORT NEAR NAVIGATION AIDS